createdAt,value
2017-11-15T00:02:00.604Z,22.90
2017-11-15T00:04:29.532Z,24.90
2017-11-15T00:06:57.679Z,23.58
2017-11-15T00:09:26.678Z,24.65
2017-11-15T00:11:54.811Z,23.20
2017-11-15T00:14:22.950Z,24.85
2017-11-15T00:16:51.277Z,22.37
2017-11-15T00:19:19.417Z,21.95
2017-11-15T00:21:47.670Z,22.52
2017-11-15T00:24:15.802Z,25.02
2017-11-15T00:26:44.047Z,24.35
2017-11-15T00:29:12.174Z,25.23
2017-11-15T00:31:40.341Z,24.40
2017-11-15T00:34:08.478Z,23.08
2017-11-15T00:36:36.613Z,23.50
2017-11-15T00:39:04.769Z,25.02
2017-11-15T00:41:32.921Z,23.12
2017-11-15T00:44:01.276Z,23.75
2017-11-15T00:46:29.436Z,24.70
2017-11-15T00:48:57.596Z,23.25
2017-11-15T00:51:25.724Z,23.62
2017-11-15T00:53:54.651Z,25.58
2017-11-15T00:56:22.782Z,22.90
2017-11-15T00:58:51.718Z,24.00
2017-11-15T01:01:20.715Z,24.33
2017-11-15T01:03:48.865Z,24.33
2017-11-15T01:06:17.045Z,23.08
2017-11-15T01:08:45.188Z,23.65
2017-11-15T01:11:16.517Z,23.62
2017-11-15T01:13:46.427Z,22.73
2017-11-15T01:16:15.686Z,23.62
2017-11-15T01:18:43.813Z,21.73
2017-11-15T01:21:11.981Z,23.62
2017-11-15T01:23:40.123Z,21.70
2017-11-15T01:26:08.254Z,23.23
2017-11-15T01:28:37.200Z,22.90
2017-11-15T01:31:05.339Z,22.23
2017-11-15T01:33:33.654Z,22.67
2017-11-15T01:36:01.787Z,20.48
2017-11-15T01:38:29.966Z,24.27
2017-11-15T01:40:58.118Z,24.30
2017-11-15T01:46:00.579Z,22.05
2017-11-15T01:48:32.461Z,23.15
2017-11-15T01:51:04.043Z,23.67
2017-11-15T01:53:32.197Z,24.65
2017-11-15T01:56:01.217Z,24.55
2017-11-15T01:58:30.797Z,26.37
2017-11-15T02:01:00.385Z,29.60
2017-11-15T02:03:29.098Z,29.95
2017-11-15T02:05:59.684Z,27.13
2017-11-15T02:08:29.252Z,32.97
2017-11-15T02:10:57.477Z,28.55
2017-11-15T02:13:25.621Z,30.98
2017-11-15T02:15:53.758Z,36.00
2017-11-15T02:18:21.899Z,36.58
2017-11-15T02:20:50.806Z,36.55
2017-11-15T02:23:19.734Z,32.47
2017-11-15T02:25:47.874Z,33.58
2017-11-15T02:28:16.828Z,35.78
2017-11-15T02:30:44.971Z,41.08
2017-11-15T02:33:13.112Z,46.28
2017-11-15T02:35:41.431Z,34.13
2017-11-15T02:38:09.566Z,36.47
2017-11-15T02:40:37.744Z,34.97
2017-11-15T02:43:05.877Z,36.17
2017-11-15T02:45:34.009Z,28.87
2017-11-15T02:48:02.179Z,38.75
2017-11-15T02:50:30.321Z,40.00
2017-11-15T02:52:59.419Z,29.70
2017-11-15T02:55:28.345Z,43.53
2017-11-15T02:57:56.518Z,37.65
2017-11-15T03:00:24.642Z,40.45
2017-11-15T03:02:53.541Z,33.15
2017-11-15T03:05:22.479Z,34.33
2017-11-15T03:07:50.614Z,33.58
2017-11-15T03:10:19.769Z,29.77
2017-11-15T03:12:47.909Z,29.40
2017-11-15T03:15:16.034Z,32.63
2017-11-15T03:17:44.362Z,32.58
2017-11-15T03:20:12.503Z,31.35
2017-11-15T03:22:41.420Z,35.45
2017-11-15T03:25:09.560Z,35.17
2017-11-15T03:27:38.593Z,32.58
2017-11-15T03:30:07.498Z,31.05
2017-11-15T03:32:35.810Z,32.88
2017-11-15T03:35:03.953Z,35.47
2017-11-15T03:37:32.125Z,34.08
2017-11-15T03:40:00.269Z,31.45
2017-11-15T03:42:28.436Z,29.58
2017-11-15T03:44:56.573Z,31.08
2017-11-15T03:47:24.838Z,34.50
2017-11-15T03:49:52.979Z,29.48
2017-11-15T03:52:21.139Z,28.98
2017-11-15T03:54:49.309Z,36.22
2017-11-15T03:57:17.455Z,35.65
2017-11-15T03:59:45.615Z,32.13
2017-11-15T04:02:13.749Z,33.63
2017-11-15T04:04:42.049Z,31.27
2017-11-15T04:07:10.192Z,29.02
2017-11-15T04:09:38.337Z,33.88
2017-11-15T04:12:06.505Z,30.05
2017-11-15T04:14:35.394Z,28.12
2017-11-15T04:17:04.321Z,29.75
2017-11-15T04:19:32.459Z,26.40
2017-11-15T04:22:01.493Z,27.50
2017-11-15T04:24:29.624Z,26.52
2017-11-15T04:26:58.531Z,27.77
2017-11-15T04:29:26.694Z,27.92
2017-11-15T04:31:55.598Z,27.70
2017-11-15T04:34:23.749Z,27.60
2017-11-15T04:36:52.647Z,24.50
2017-11-15T04:39:21.750Z,26.35
2017-11-15T04:41:49.881Z,27.80
2017-11-15T04:44:18.024Z,26.65
2017-11-15T04:46:46.183Z,23.55
2017-11-15T04:49:14.306Z,22.87
2017-11-15T04:51:42.488Z,23.33
2017-11-15T04:54:10.618Z,23.12
2017-11-15T04:56:38.963Z,23.55
2017-11-15T04:59:07.889Z,25.60
2017-11-15T05:01:36.020Z,26.10
2017-11-15T05:04:04.958Z,27.95
2017-11-15T05:06:33.101Z,28.12
2017-11-15T05:09:01.285Z,26.85
2017-11-15T05:11:29.500Z,29.48
2017-11-15T05:13:57.638Z,29.65
2017-11-15T05:16:25.826Z,27.55
2017-11-15T05:18:53.974Z,31.55
2017-11-15T05:21:22.162Z,29.70
2017-11-15T05:23:50.591Z,29.52
2017-11-15T05:26:18.741Z,30.25
2017-11-15T05:28:46.910Z,29.77
2017-11-15T05:31:15.044Z,31.55
2017-11-15T05:33:43.321Z,27.80
2017-11-15T05:36:11.453Z,29.15
2017-11-15T05:38:39.610Z,26.12
2017-11-15T05:41:07.771Z,28.15
2017-11-15T05:43:35.907Z,27.62
2017-11-15T05:46:04.065Z,28.62
2017-11-15T05:48:33.137Z,30.25
2017-11-15T05:51:01.301Z,28.62
2017-11-15T05:53:29.480Z,27.70
2017-11-15T05:55:57.620Z,29.70
2017-11-15T05:58:25.798Z,27.58
2017-11-15T06:00:53.938Z,27.77
2017-11-15T06:03:22.097Z,27.75
2017-11-15T06:05:50.229Z,29.60
2017-11-15T06:08:18.517Z,34.33
2017-11-15T06:10:46.793Z,29.48
2017-11-15T06:13:14.930Z,28.15
2017-11-15T06:15:43.018Z,29.85
2017-11-15T06:18:11.174Z,27.67
2017-11-15T06:20:40.397Z,28.27
2017-11-15T06:23:08.627Z,31.62
2017-11-15T06:25:36.820Z,30.25
2017-11-15T06:28:04.889Z,30.27
2017-11-15T06:30:33.858Z,29.45
2017-11-15T06:33:01.961Z,27.73
2017-11-15T06:35:30.124Z,29.10
2017-11-15T06:37:58.368Z,30.67
2017-11-15T06:40:27.275Z,31.25
2017-11-15T06:42:56.179Z,27.75
2017-11-15T06:45:24.337Z,24.87
2017-11-15T06:47:52.486Z,27.87
2017-11-15T06:50:20.808Z,27.80
2017-11-15T06:52:48.953Z,28.35
2017-11-15T06:55:17.877Z,28.35
2017-11-15T06:57:46.014Z,27.37
2017-11-15T07:00:14.951Z,28.33
2017-11-15T07:02:43.086Z,28.50
2017-11-15T07:05:12.022Z,28.50
2017-11-15T07:07:40.273Z,28.98
2017-11-15T07:10:08.427Z,27.23
2017-11-15T07:12:37.349Z,23.73
2017-11-15T07:15:05.484Z,25.30
2017-11-15T07:17:34.421Z,25.20
2017-11-15T07:20:02.561Z,23.58
2017-11-15T07:22:30.691Z,23.85
2017-11-15T07:24:58.898Z,24.65
2017-11-15T07:27:27.807Z,24.40
2017-11-15T07:29:55.948Z,26.50
2017-11-15T07:32:24.099Z,23.20
2017-11-15T07:34:52.243Z,23.45
2017-11-15T07:37:20.404Z,25.62
2017-11-15T07:39:48.552Z,26.37
2017-11-15T07:42:16.834Z,24.48
2017-11-15T07:44:44.989Z,25.02
2017-11-15T07:47:13.121Z,24.83
2017-11-15T07:49:41.287Z,25.10
2017-11-15T07:52:09.413Z,27.90
2017-11-15T07:54:37.569Z,30.05
2017-11-15T07:57:05.710Z,32.42
2017-11-15T07:59:33.985Z,29.70
2017-11-15T08:02:02.151Z,32.83
2017-11-15T08:04:30.292Z,29.70
2017-11-15T08:06:59.207Z,32.35
2017-11-15T08:09:27.374Z,31.35
2017-11-15T08:11:55.502Z,33.05
2017-11-15T08:14:23.685Z,32.80
2017-11-15T08:16:51.817Z,31.77
2017-11-15T08:19:19.956Z,31.65
2017-11-15T08:21:48.990Z,31.85
2017-11-15T08:24:17.136Z,30.23
2017-11-15T08:26:45.314Z,31.90
2017-11-15T08:29:13.448Z,30.92
2017-11-15T08:31:41.587Z,33.35
2017-11-15T08:34:09.875Z,29.63
2017-11-15T08:36:38.018Z,29.70
2017-11-15T08:39:06.178Z,32.15
2017-11-15T08:41:34.315Z,33.50
2017-11-15T08:44:02.510Z,30.98
2017-11-15T08:46:31.406Z,34.60
2017-11-15T08:49:00.459Z,31.52
2017-11-15T08:51:28.603Z,32.53
2017-11-15T08:53:56.767Z,31.75
2017-11-15T08:56:24.912Z,30.90
2017-11-15T08:58:53.075Z,32.88
2017-11-15T09:01:21.234Z,34.97
2017-11-15T09:03:49.523Z,34.50
2017-11-15T09:06:17.653Z,36.90
2017-11-15T09:08:45.801Z,35.00
2017-11-15T09:11:14.013Z,38.78
2017-11-15T09:13:42.147Z,35.25
2017-11-15T09:16:10.297Z,34.45
2017-11-15T09:18:38.594Z,33.08
2017-11-15T09:21:06.725Z,35.90
2017-11-15T09:23:34.945Z,34.05
2017-11-15T09:26:03.082Z,35.67
2017-11-15T09:28:31.223Z,36.45
2017-11-15T09:30:59.381Z,35.33
2017-11-15T09:33:27.554Z,36.97
2017-11-15T09:35:55.719Z,36.10
2017-11-15T09:38:23.897Z,36.67
2017-11-15T09:40:52.038Z,34.50
2017-11-15T09:43:20.939Z,34.33
2017-11-15T09:45:49.214Z,34.50
2017-11-15T09:48:17.354Z,35.00
2017-11-15T09:50:45.505Z,32.08
2017-11-15T09:53:13.647Z,32.13
2017-11-15T09:55:41.930Z,29.27
2017-11-15T09:58:10.067Z,31.25
2017-11-15T10:00:38.972Z,35.13
2017-11-15T10:03:07.910Z,30.90
2017-11-15T10:05:36.050Z,29.85
2017-11-15T10:08:04.186Z,31.30
2017-11-15T10:10:32.379Z,29.73
2017-11-15T10:13:00.477Z,30.33
2017-11-15T10:15:28.763Z,25.40
2017-11-15T10:17:56.917Z,24.90
2017-11-15T10:20:25.076Z,22.45
2017-11-15T10:22:54.005Z,23.48
2017-11-15T10:25:22.154Z,21.62
2017-11-15T10:27:50.289Z,20.37
2017-11-15T10:30:18.582Z,19.75
2017-11-15T10:32:47.610Z,19.83
2017-11-15T10:35:15.757Z,20.50
2017-11-15T10:37:43.933Z,19.05
2017-11-15T10:40:12.138Z,19.58
2017-11-15T10:42:40.230Z,20.98
2017-11-15T10:45:08.402Z,19.52
2017-11-15T10:47:36.541Z,19.30
2017-11-15T10:50:04.862Z,19.25
2017-11-15T10:52:32.997Z,18.33
2017-11-15T10:55:01.141Z,20.35
2017-11-15T10:57:30.083Z,17.60
2017-11-15T10:59:58.225Z,17.60
2017-11-15T11:02:26.378Z,19.25
2017-11-15T11:04:55.277Z,18.20
2017-11-15T11:07:23.418Z,17.15
2017-11-15T11:09:51.624Z,19.05
2017-11-15T11:12:19.774Z,18.23
2017-11-15T11:14:47.946Z,18.25
2017-11-15T11:17:16.101Z,18.92
2017-11-15T11:19:44.273Z,18.83
2017-11-15T11:22:12.449Z,18.55
2017-11-15T11:24:40.607Z,17.40
2017-11-15T11:27:08.748Z,17.55
2017-11-15T11:29:37.026Z,17.87
2017-11-15T11:32:05.193Z,17.95
2017-11-15T11:34:33.329Z,16.05
2017-11-15T11:37:01.497Z,17.73
2017-11-15T11:39:29.637Z,16.60
2017-11-15T11:41:57.774Z,18.05
2017-11-15T11:44:26.829Z,20.02
2017-11-15T11:46:54.999Z,19.95
2017-11-15T11:49:23.134Z,18.83
2017-11-15T11:51:51.299Z,16.00
2017-11-15T11:54:19.441Z,17.52
2017-11-15T11:56:47.589Z,16.58
2017-11-15T11:59:15.761Z,15.80
2017-11-15T12:01:44.074Z,16.58
2017-11-15T12:04:12.198Z,15.98
2017-11-15T12:06:40.340Z,15.90
2017-11-15T12:09:08.517Z,15.93
2017-11-15T12:11:37.577Z,15.98
2017-11-15T12:14:06.469Z,14.30
2017-11-15T12:16:35.241Z,15.13
2017-11-15T12:19:04.027Z,15.60
2017-11-15T12:24:10.938Z,15.27
2017-11-15T12:26:45.816Z,14.40
2017-11-15T12:29:13.969Z,14.32
2017-11-15T12:31:47.829Z,14.43
2017-11-15T12:34:15.995Z,14.00
2017-11-15T12:36:57.545Z,14.18
2017-11-15T12:39:30.049Z,14.15
2017-11-15T12:42:06.397Z,14.18
2017-11-15T12:44:44.234Z,13.10
2017-11-15T12:47:19.850Z,14.20
2017-11-15T12:49:55.630Z,15.05
2017-11-15T12:52:31.136Z,15.10
2017-11-15T12:55:06.938Z,14.68
2017-11-15T12:57:43.039Z,14.43
2017-11-15T13:00:18.583Z,15.10
2017-11-15T13:02:53.903Z,12.80
2017-11-15T13:05:29.627Z,13.95
2017-11-15T13:08:05.377Z,13.95
2017-11-15T13:10:56.229Z,14.10
2017-11-15T13:13:47.919Z,12.93
2017-11-15T13:16:39.094Z,12.05
2017-11-15T13:19:29.544Z,13.35
2017-11-15T13:21:57.774Z,13.90
2017-11-15T13:24:25.922Z,13.77
2017-11-15T13:26:54.070Z,13.30
2017-11-15T13:29:22.993Z,12.35
2017-11-15T13:31:51.178Z,12.05
2017-11-15T13:34:19.322Z,12.90
2017-11-15T13:36:48.245Z,14.38
2017-11-15T13:39:16.423Z,13.48
2017-11-15T13:41:44.550Z,13.73
2017-11-15T13:44:13.487Z,12.85
2017-11-15T13:46:41.629Z,11.12
2017-11-15T13:49:09.765Z,11.65
2017-11-15T13:51:38.038Z,11.63
2017-11-15T13:54:06.182Z,11.90
2017-11-15T13:56:34.354Z,10.60
2017-11-15T13:59:03.253Z,11.15
2017-11-15T14:01:31.426Z,10.30
2017-11-15T14:03:59.572Z,10.85
2017-11-15T14:06:27.711Z,10.27
2017-11-15T14:08:55.983Z,9.48
2017-11-15T14:11:24.149Z,9.70
2017-11-15T14:13:52.314Z,10.68
2017-11-15T14:16:20.488Z,10.05
2017-11-15T14:18:48.616Z,10.00
2017-11-15T14:21:16.798Z,10.50
2017-11-15T14:23:44.920Z,11.63
2017-11-15T14:26:13.199Z,10.20
2017-11-15T14:28:41.354Z,12.32
2017-11-15T14:31:09.519Z,10.30
2017-11-15T14:33:37.659Z,11.30
2017-11-15T14:36:05.789Z,10.70
2017-11-15T14:38:33.962Z,10.82
2017-11-15T14:41:02.099Z,10.48
2017-11-15T14:43:30.306Z,10.80
2017-11-15T14:45:58.450Z,9.13
2017-11-15T14:48:26.609Z,10.88
2017-11-15T14:50:54.782Z,10.43
2017-11-15T14:53:22.909Z,9.80
2017-11-15T14:55:51.077Z,11.05
2017-11-15T14:58:19.210Z,11.20
2017-11-15T15:00:48.547Z,11.10
2017-11-15T15:03:24.566Z,10.95
2017-11-15T15:05:54.162Z,11.55
2017-11-15T15:08:25.741Z,11.82
2017-11-15T15:11:00.354Z,11.55
2017-11-15T15:13:30.525Z,10.35
2017-11-15T15:15:59.686Z,11.30
2017-11-15T15:21:10.794Z,11.68
2017-11-15T15:23:38.987Z,10.38
2017-11-15T15:26:07.123Z,12.75
2017-11-15T15:28:35.296Z,11.60
2017-11-15T15:31:03.524Z,14.00
2017-11-15T15:33:33.983Z,13.15
2017-11-15T15:36:02.523Z,14.60
2017-11-15T15:38:30.662Z,13.50
2017-11-15T15:40:58.792Z,15.13
2017-11-15T15:43:26.946Z,13.10
2017-11-15T15:45:55.854Z,13.02
2017-11-15T15:48:24.013Z,14.45
2017-11-15T15:50:52.999Z,13.77
2017-11-15T15:53:22.090Z,14.70
2017-11-15T15:55:50.215Z,14.05
2017-11-15T15:58:18.358Z,16.75
2017-11-15T16:00:46.549Z,17.52
2017-11-15T16:03:14.689Z,17.02
2017-11-15T16:05:43.634Z,18.90
2017-11-15T16:08:11.801Z,18.17
2017-11-15T16:10:39.984Z,18.15
2017-11-15T16:13:08.161Z,18.08
2017-11-15T16:15:36.286Z,19.12
2017-11-15T16:18:04.461Z,19.90
2017-11-15T16:20:32.634Z,18.25
2017-11-15T16:23:00.781Z,19.15
2017-11-15T16:25:28.963Z,18.77
2017-11-15T16:27:57.106Z,19.33
2017-11-15T16:30:25.250Z,18.37
2017-11-15T16:32:54.570Z,21.70
2017-11-15T16:35:22.754Z,20.50
2017-11-15T16:37:50.906Z,20.70
2017-11-15T16:40:19.060Z,22.40
2017-11-15T16:42:47.227Z,20.62
2017-11-15T16:45:15.376Z,22.80
2017-11-15T16:47:43.513Z,22.02
2017-11-15T16:50:11.682Z,22.70
2017-11-15T16:52:39.817Z,23.62
2017-11-15T16:55:07.981Z,23.45
2017-11-15T16:57:36.898Z,23.92
2017-11-15T17:00:05.095Z,21.83
2017-11-15T17:02:33.254Z,23.58
2017-11-15T17:05:01.568Z,22.02
2017-11-15T17:07:30.635Z,21.25
2017-11-15T17:09:58.791Z,21.37
2017-11-15T17:12:26.970Z,23.85
2017-11-15T17:14:55.118Z,21.35
2017-11-15T17:17:24.010Z,21.70
2017-11-15T17:19:52.195Z,21.83
2017-11-15T17:22:20.474Z,21.55
2017-11-15T17:24:48.623Z,20.48
2017-11-15T17:27:17.529Z,22.45
2017-11-15T17:29:45.700Z,22.33
2017-11-15T17:32:13.833Z,19.35
2017-11-15T17:34:41.966Z,21.40
2017-11-15T17:37:10.137Z,21.20
2017-11-15T17:39:38.280Z,21.15
2017-11-15T17:42:07.364Z,21.60
2017-11-15T17:44:35.492Z,21.37
2017-11-15T17:47:03.636Z,21.52
2017-11-15T17:49:32.579Z,21.27
2017-11-15T17:52:00.721Z,21.52
2017-11-15T17:54:28.896Z,21.27
2017-11-15T17:56:57.063Z,22.92
2017-11-15T17:59:25.195Z,20.67
2017-11-15T18:01:53.525Z,21.12
2017-11-15T18:04:21.676Z,20.08
2017-11-15T18:06:49.833Z,20.83
2017-11-15T18:09:18.775Z,22.50
2017-11-15T18:11:46.958Z,21.10
2017-11-15T18:14:15.106Z,21.27
2017-11-15T18:16:43.266Z,21.85
2017-11-15T18:19:11.443Z,22.65
2017-11-15T18:21:39.578Z,22.15
2017-11-15T18:24:07.778Z,20.10
2017-11-15T18:26:36.705Z,18.98
2017-11-15T18:29:04.864Z,22.70
2017-11-15T18:31:34.459Z,21.10
2017-11-15T18:34:02.894Z,22.08
2017-11-15T18:36:32.109Z,23.20
2017-11-15T18:39:00.698Z,22.20
2017-11-15T18:41:29.172Z,21.10
2017-11-15T18:43:57.643Z,22.27
2017-11-15T18:46:26.086Z,19.90
2017-11-15T18:48:54.544Z,21.00
2017-11-15T18:51:23.036Z,22.77
2017-11-15T18:53:51.505Z,20.80
2017-11-15T18:56:19.976Z,21.60
2017-11-15T18:58:49.207Z,20.70
2017-11-15T19:01:17.642Z,21.33
2017-11-15T19:03:46.098Z,21.90
2017-11-15T19:06:15.371Z,19.70
2017-11-15T19:08:43.867Z,18.12
2017-11-15T19:11:12.382Z,20.67
2017-11-15T19:13:40.829Z,20.98
2017-11-15T19:16:10.075Z,18.10
2017-11-15T19:18:39.400Z,19.20
2017-11-15T19:21:07.898Z,19.75
2017-11-15T19:23:36.405Z,20.45
2017-11-15T19:26:05.657Z,19.20
2017-11-15T19:28:34.121Z,19.12
2017-11-15T19:31:02.558Z,19.33
2017-11-15T19:33:31.786Z,17.80
2017-11-15T19:36:00.250Z,18.50
2017-11-15T19:38:28.735Z,20.23
2017-11-15T19:40:57.179Z,18.75
2017-11-15T19:43:25.690Z,19.27
2017-11-15T19:45:54.146Z,17.33
2017-11-15T19:48:22.634Z,18.55
2017-11-15T19:50:51.134Z,20.65
2017-11-15T19:53:20.409Z,17.75
2017-11-15T19:55:48.854Z,18.62
2017-11-15T19:58:17.291Z,16.55
2017-11-15T20:00:45.809Z,17.33
2017-11-15T20:03:14.274Z,19.35
2017-11-15T20:05:43.656Z,16.98
2017-11-15T20:08:12.140Z,18.50
2017-11-15T20:10:40.650Z,18.75
2017-11-15T20:13:09.122Z,17.90
2017-11-15T20:15:37.607Z,18.73
2017-11-15T20:18:06.054Z,17.10
2017-11-15T20:20:35.448Z,17.60
2017-11-15T20:23:04.689Z,16.62
2017-11-15T20:25:33.139Z,17.85
2017-11-15T20:28:02.314Z,18.75
2017-11-15T20:30:30.712Z,17.85
2017-11-15T20:32:59.885Z,18.12
2017-11-15T20:35:28.180Z,19.33
2017-11-15T20:37:56.506Z,16.48
2017-11-15T20:40:24.656Z,16.80
2017-11-15T20:42:52.810Z,17.23
2017-11-15T20:45:21.007Z,19.83
2017-11-15T20:47:49.940Z,18.70
2017-11-15T20:50:18.091Z,19.77
2017-11-15T20:52:46.293Z,18.40
2017-11-15T20:55:14.432Z,17.30
2017-11-15T20:57:42.592Z,18.60
2017-11-15T21:00:13.867Z,20.75
2017-11-15T21:02:42.016Z,19.27
2017-11-15T21:05:10.919Z,18.90
2017-11-15T21:07:39.090Z,18.17
2017-11-15T21:10:08.006Z,18.25
2017-11-15T21:12:36.170Z,17.62
2017-11-15T21:15:04.331Z,16.77
2017-11-15T21:17:32.611Z,19.15
2017-11-15T21:20:00.760Z,19.17
2017-11-15T21:22:28.947Z,18.80
2017-11-15T21:24:57.920Z,17.75
2017-11-15T21:27:26.111Z,18.87
2017-11-15T21:29:55.027Z,19.17
2017-11-15T21:32:23.166Z,17.27
2017-11-15T21:34:52.238Z,18.15
2017-11-15T21:37:20.370Z,17.87
2017-11-15T21:39:48.577Z,17.37
2017-11-15T21:42:16.717Z,17.87
2017-11-15T21:44:44.869Z,17.90
2017-11-15T21:47:13.039Z,19.95
2017-11-15T21:49:41.170Z,20.80
2017-11-15T21:52:09.319Z,20.30
2017-11-15T21:54:37.605Z,21.50
2017-11-15T21:57:05.755Z,20.73
2017-11-15T21:59:33.894Z,23.08
2017-11-15T22:02:02.845Z,21.60
2017-11-15T22:04:31.006Z,19.70
2017-11-15T22:06:59.303Z,22.20
2017-11-15T22:09:27.472Z,22.33
2017-11-15T22:11:55.604Z,24.00
2017-11-15T22:14:23.793Z,23.25
2017-11-15T22:16:51.942Z,24.12
2017-11-15T22:19:20.117Z,22.95
2017-11-15T22:21:48.267Z,23.05
2017-11-15T22:24:16.430Z,22.60
2017-11-15T22:26:44.574Z,22.15
2017-11-15T22:29:12.730Z,21.92
2017-11-15T22:31:41.031Z,22.92
2017-11-15T22:34:09.918Z,22.60
2017-11-15T22:36:38.102Z,21.15
2017-11-15T22:39:06.243Z,21.35
2017-11-15T22:41:34.543Z,21.35
2017-11-15T22:44:02.682Z,22.23
2017-11-15T22:46:30.830Z,25.02
2017-11-15T22:48:59.759Z,20.40
2017-11-15T22:51:27.906Z,22.33
2017-11-15T22:53:56.833Z,21.98
2017-11-15T22:56:25.003Z,22.42
2017-11-15T22:58:53.138Z,23.75
2017-11-15T23:01:22.183Z,22.33
2017-11-15T23:03:50.326Z,23.30
2017-11-15T23:06:18.515Z,24.75
2017-11-15T23:08:46.687Z,20.50
2017-11-15T23:11:14.836Z,23.10
2017-11-15T23:13:43.777Z,22.55
2017-11-15T23:16:11.917Z,23.48
2017-11-15T23:18:40.201Z,22.80
2017-11-15T23:21:08.350Z,22.65
2017-11-15T23:23:36.486Z,23.08
2017-11-15T23:26:04.639Z,21.80
2017-11-15T23:28:32.789Z,24.25
2017-11-15T23:31:00.947Z,21.85
2017-11-15T23:33:29.083Z,22.62
2017-11-15T23:35:57.230Z,22.85
2017-11-15T23:38:26.269Z,22.73
2017-11-15T23:40:55.169Z,24.40
2017-11-15T23:43:24.092Z,21.50
2017-11-15T23:45:52.246Z,22.52
2017-11-15T23:48:20.514Z,20.75
2017-11-15T23:50:48.649Z,21.55
2017-11-15T23:53:16.778Z,23.10
2017-11-15T23:55:44.937Z,21.23
2017-11-15T23:58:13.085Z,21.95
